sensor_id;sensor_type;location;lat;lon;timestamp;P1;durP1;ratioP1;P2;durP2;ratioP2
21000;SDS011;10658;50.920;12.238;2023-02-15T00:01:24;11.10;;;6.47;;
21000;SDS011;10658;50.920;12.238;2023-02-15T00:05:26;10.32;;;6.60;;
21000;SDS011;10658;50.920;12.238;2023-02-15T00:09:26;10.52;;;6.80;;
21000;SDS011;10658;50.920;12.238;2023-02-15T00:13:27;9.48;;;6.40;;
21000;SDS011;10658;50.920;12.238;2023-02-15T00:17:29;11.15;;;7.00;;
21000;SDS011;10658;50.920;12.238;2023-02-15T00:21:31;11.52;;;6.43;;
21000;SDS011;10658;50.920;12.238;2023-02-15T00:25:33;8.10;;;6.38;;
21000;SDS011;10658;50.920;12.238;2023-02-15T00:29:54;11.88;;;6.50;;
21000;SDS011;10658;50.920;12.238;2023-02-15T00:34:02;13.05;;;6.53;;
21000;SDS011;10658;50.920;12.238;2023-02-15T00:38:04;16.17;;;8.20;;
21000;SDS011;10658;50.920;12.238;2023-02-15T00:42:05;13.43;;;7.53;;
21000;SDS011;10658;50.920;12.238;2023-02-15T00:46:06;12.40;;;6.90;;
21000;SDS011;10658;50.920;12.238;2023-02-15T00:50:08;14.30;;;7.57;;
21000;SDS011;10658;50.920;12.238;2023-02-15T00:54:10;13.85;;;6.82;;
21000;SDS011;10658;50.920;12.238;2023-02-15T00:58:11;15.90;;;7.65;;
21000;SDS011;10658;50.920;12.238;2023-02-15T01:02:13;15.02;;;7.22;;
21000;SDS011;10658;50.920;12.238;2023-02-15T01:06:15;14.30;;;7.43;;
21000;SDS011;10658;50.920;12.238;2023-02-15T01:10:17;11.13;;;7.43;;
21000;SDS011;10658;50.920;12.238;2023-02-15T01:14:18;13.23;;;7.03;;
21000;SDS011;10658;50.920;12.238;2023-02-15T01:18:20;11.35;;;6.35;;
21000;SDS011;10658;50.920;12.238;2023-02-15T01:22:22;15.70;;;7.78;;
21000;SDS011;10658;50.920;12.238;2023-02-15T01:26:24;11.05;;;7.15;;
21000;SDS011;10658;50.920;12.238;2023-02-15T01:30:26;13.55;;;7.18;;
21000;SDS011;10658;50.920;12.238;2023-02-15T01:34:28;21.98;;;10.93;;
21000;SDS011;10658;50.920;12.238;2023-02-15T01:38:31;28.08;;;12.50;;
21000;SDS011;10658;50.920;12.238;2023-02-15T01:42:34;22.50;;;11.57;;
21000;SDS011;10658;50.920;12.238;2023-02-15T01:46:38;17.83;;;10.95;;
21000;SDS011;10658;50.920;12.238;2023-02-15T01:50:44;16.15;;;9.45;;
21000;SDS011;10658;50.920;12.238;2023-02-15T01:54:58;13.98;;;7.60;;
21000;SDS011;10658;50.920;12.238;2023-02-15T01:59:02;15.45;;;7.93;;
21000;SDS011;10658;50.920;12.238;2023-02-15T02:03:08;13.55;;;8.52;;
21000;SDS011;10658;50.920;12.238;2023-02-15T02:07:08;13.52;;;7.65;;
21000;SDS011;10658;50.920;12.238;2023-02-15T02:11:13;15.27;;;8.75;;
21000;SDS011;10658;50.920;12.238;2023-02-15T02:15:14;11.05;;;7.03;;
21000;SDS011;10658;50.920;12.238;2023-02-15T02:23:29;14.18;;;7.82;;
21000;SDS011;10658;50.920;12.238;2023-02-15T02:27:43;13.23;;;7.32;;
21000;SDS011;10658;50.920;12.238;2023-02-15T02:40:49;12.68;;;7.57;;
21000;SDS011;10658;50.920;12.238;2023-02-15T02:49:05;11.32;;;6.93;;
21000;SDS011;10658;50.920;12.238;2023-02-15T02:53:06;10.20;;;7.40;;
21000;SDS011;10658;50.920;12.238;2023-02-15T02:57:09;14.27;;;8.45;;
21000;SDS011;10658;50.920;12.238;2023-02-15T03:01:21;14.80;;;7.13;;
21000;SDS011;10658;50.920;12.238;2023-02-15T03:05:26;9.52;;;6.88;;
21000;SDS011;10658;50.920;12.238;2023-02-15T03:09:37;11.02;;;6.95;;
21000;SDS011;10658;50.920;12.238;2023-02-15T03:13:43;10.48;;;6.70;;
21000;SDS011;10658;50.920;12.238;2023-02-15T03:17:48;13.00;;;6.63;;
21000;SDS011;10658;50.920;12.238;2023-02-15T03:21:58;9.18;;;6.20;;
21000;SDS011;10658;50.920;12.238;2023-02-15T03:26:09;12.07;;;6.57;;
21000;SDS011;10658;50.920;12.238;2023-02-15T03:30:11;9.18;;;6.25;;
21000;SDS011;10658;50.920;12.238;2023-02-15T03:34:17;11.02;;;6.85;;
21000;SDS011;10658;50.920;12.238;2023-02-15T03:38:20;13.25;;;7.15;;
21000;SDS011;10658;50.920;12.238;2023-02-15T03:42:49;12.18;;;6.53;;
21000;SDS011;10658;50.920;12.238;2023-02-15T03:51:21;15.85;;;8.02;;
21000;SDS011;10658;50.920;12.238;2023-02-15T03:55:36;13.82;;;6.57;;
21000;SDS011;10658;50.920;12.238;2023-02-15T03:59:38;11.20;;;6.55;;
21000;SDS011;10658;50.920;12.238;2023-02-15T04:04:03;15.73;;;8.13;;
21000;SDS011;10658;50.920;12.238;2023-02-15T04:08:10;9.02;;;5.72;;
21000;SDS011;10658;50.920;12.238;2023-02-15T04:12:13;10.77;;;6.22;;
21000;SDS011;10658;50.920;12.238;2023-02-15T04:16:15;8.73;;;5.18;;
21000;SDS011;10658;50.920;12.238;2023-02-15T04:20:16;10.07;;;5.72;;
21000;SDS011;10658;50.920;12.238;2023-02-15T04:24:36;12.20;;;6.77;;
21000;SDS011;10658;50.920;12.238;2023-02-15T04:28:56;8.93;;;6.05;;
21000;SDS011;10658;50.920;12.238;2023-02-15T04:32:57;9.20;;;5.45;;
21000;SDS011;10658;50.920;12.238;2023-02-15T04:37:01;9.37;;;5.33;;
21000;SDS011;10658;50.920;12.238;2023-02-15T04:41:01;6.47;;;4.63;;
21000;SDS011;10658;50.920;12.238;2023-02-15T04:45:05;10.00;;;6.00;;
21000;SDS011;10658;50.920;12.238;2023-02-15T04:49:09;7.80;;;5.18;;
21000;SDS011;10658;50.920;12.238;2023-02-15T04:53:11;6.47;;;4.13;;
21000;SDS011;10658;50.920;12.238;2023-02-15T04:57:12;10.57;;;6.38;;
21000;SDS011;10658;50.920;12.238;2023-02-15T05:01:14;8.23;;;4.72;;
21000;SDS011;10658;50.920;12.238;2023-02-15T05:05:15;7.55;;;4.50;;
21000;SDS011;10658;50.920;12.238;2023-02-15T05:09:17;7.68;;;4.47;;
21000;SDS011;10658;50.920;12.238;2023-02-15T05:13:18;7.32;;;4.15;;
21000;SDS011;10658;50.920;12.238;2023-02-15T05:17:20;10.02;;;4.20;;
21000;SDS011;10658;50.920;12.238;2023-02-15T05:21:20;7.60;;;3.67;;
21000;SDS011;10658;50.920;12.238;2023-02-15T05:25:22;7.88;;;4.25;;
21000;SDS011;10658;50.920;12.238;2023-02-15T05:29:42;8.82;;;4.05;;
21000;SDS011;10658;50.920;12.238;2023-02-15T05:33:43;8.43;;;4.32;;
21000;SDS011;10658;50.920;12.238;2023-02-15T05:37:44;5.28;;;4.05;;
21000;SDS011;10658;50.920;12.238;2023-02-15T05:41:45;8.60;;;4.07;;
21000;SDS011;10658;50.920;12.238;2023-02-15T05:45:47;8.15;;;5.10;;
21000;SDS011;10658;50.920;12.238;2023-02-15T05:49:49;6.80;;;4.18;;
21000;SDS011;10658;50.920;12.238;2023-02-15T05:53:50;7.43;;;4.38;;
21000;SDS011;10658;50.920;12.238;2023-02-15T05:57:54;7.07;;;4.63;;
21000;SDS011;10658;50.920;12.238;2023-02-15T06:01:55;11.45;;;5.70;;
21000;SDS011;10658;50.920;12.238;2023-02-15T06:05:56;6.90;;;3.97;;
21000;SDS011;10658;50.920;12.238;2023-02-15T06:09:57;7.90;;;4.18;;
21000;SDS011;10658;50.920;12.238;2023-02-15T06:13:59;5.47;;;4.00;;
21000;SDS011;10658;50.920;12.238;2023-02-15T06:18:01;7.30;;;4.20;;
21000;SDS011;10658;50.920;12.238;2023-02-15T06:22:02;6.55;;;3.92;;
21000;SDS011;10658;50.920;12.238;2023-02-15T06:26:04;6.10;;;3.60;;
21000;SDS011;10658;50.920;12.238;2023-02-15T06:30:05;6.20;;;3.72;;
21000;SDS011;10658;50.920;12.238;2023-02-15T06:34:07;5.10;;;3.10;;
21000;SDS011;10658;50.920;12.238;2023-02-15T06:38:08;5.85;;;3.58;;
21000;SDS011;10658;50.920;12.238;2023-02-15T06:42:09;6.03;;;3.72;;
21000;SDS011;10658;50.920;12.238;2023-02-15T06:46:12;7.90;;;3.88;;
21000;SDS011;10658;50.920;12.238;2023-02-15T06:50:13;4.93;;;2.97;;
21000;SDS011;10658;50.920;12.238;2023-02-15T06:54:14;5.68;;;3.60;;
21000;SDS011;10658;50.920;12.238;2023-02-15T06:58:16;9.95;;;4.10;;
21000;SDS011;10658;50.920;12.238;2023-02-15T07:02:19;5.18;;;3.60;;
21000;SDS011;10658;50.920;12.238;2023-02-15T07:06:20;5.20;;;3.13;;
21000;SDS011;10658;50.920;12.238;2023-02-15T07:10:21;7.47;;;3.17;;
21000;SDS011;10658;50.920;12.238;2023-02-15T07:14:22;5.00;;;3.33;;
21000;SDS011;10658;50.920;12.238;2023-02-15T07:18:25;6.07;;;3.75;;
21000;SDS011;10658;50.920;12.238;2023-02-15T07:22:25;6.90;;;4.20;;
21000;SDS011;10658;50.920;12.238;2023-02-15T07:26:28;5.25;;;3.70;;
21000;SDS011;10658;50.920;12.238;2023-02-15T07:30:31;5.90;;;3.08;;
21000;SDS011;10658;50.920;12.238;2023-02-15T07:34:32;4.07;;;2.50;;
21000;SDS011;10658;50.920;12.238;2023-02-15T07:38:34;6.63;;;3.75;;
21000;SDS011;10658;50.920;12.238;2023-02-15T07:42:37;5.93;;;3.67;;
21000;SDS011;10658;50.920;12.238;2023-02-15T07:46:39;3.50;;;3.08;;
21000;SDS011;10658;50.920;12.238;2023-02-15T07:50:44;3.00;;;2.63;;
21000;SDS011;10658;50.920;12.238;2023-02-15T07:54:45;5.43;;;3.40;;
21000;SDS011;10658;50.920;12.238;2023-02-15T07:58:46;3.97;;;2.95;;
21000;SDS011;10658;50.920;12.238;2023-02-15T08:02:54;4.55;;;3.30;;
21000;SDS011;10658;50.920;12.238;2023-02-15T08:07:17;4.68;;;3.28;;
21000;SDS011;10658;50.920;12.238;2023-02-15T08:11:25;4.53;;;3.17;;
21000;SDS011;10658;50.920;12.238;2023-02-15T08:15:38;7.60;;;3.50;;
21000;SDS011;10658;50.920;12.238;2023-02-15T08:19:40;5.35;;;2.92;;
21000;SDS011;10658;50.920;12.238;2023-02-15T08:23:41;6.65;;;3.35;;
21000;SDS011;10658;50.920;12.238;2023-02-15T08:28:03;2.88;;;2.55;;
21000;SDS011;10658;50.920;12.238;2023-02-15T08:32:08;4.30;;;3.15;;
21000;SDS011;10658;50.920;12.238;2023-02-15T08:36:18;5.38;;;3.20;;
21000;SDS011;10658;50.920;12.238;2023-02-15T08:40:20;8.50;;;3.60;;
21000;SDS011;10658;50.920;12.238;2023-02-15T08:44:21;7.38;;;3.67;;
21000;SDS011;10658;50.920;12.238;2023-02-15T08:48:23;3.55;;;2.63;;
21000;SDS011;10658;50.920;12.238;2023-02-15T08:52:25;5.80;;;3.40;;
21000;SDS011;10658;50.920;12.238;2023-02-15T08:56:28;4.15;;;2.85;;
21000;SDS011;10658;50.920;12.238;2023-02-15T09:00:32;4.80;;;2.92;;
21000;SDS011;10658;50.920;12.238;2023-02-15T09:04:33;8.45;;;5.78;;
21000;SDS011;10658;50.920;12.238;2023-02-15T09:08:35;8.18;;;5.28;;
21000;SDS011;10658;50.920;12.238;2023-02-15T09:12:37;6.50;;;5.75;;
21000;SDS011;10658;50.920;12.238;2023-02-15T09:16:42;4.22;;;3.38;;
21000;SDS011;10658;50.920;12.238;2023-02-15T09:20:47;4.82;;;2.90;;
21000;SDS011;10658;50.920;12.238;2023-02-15T09:24:49;3.42;;;2.63;;
21000;SDS011;10658;50.920;12.238;2023-02-15T09:28:51;3.75;;;2.58;;
21000;SDS011;10658;50.920;12.238;2023-02-15T09:32:55;4.45;;;2.33;;
21000;SDS011;10658;50.920;12.238;2023-02-15T09:36:57;3.15;;;2.15;;
21000;SDS011;10658;50.920;12.238;2023-02-15T09:45:37;6.20;;;4.18;;
21000;SDS011;10658;50.920;12.238;2023-02-15T09:54:30;4.05;;;2.80;;
21000;SDS011;10658;50.920;12.238;2023-02-15T09:58:57;4.78;;;2.50;;
21000;SDS011;10658;50.920;12.238;2023-02-15T10:33:27;4.38;;;3.08;;
21000;SDS011;10658;50.920;12.238;2023-02-15T10:37:53;3.35;;;2.13;;
21000;SDS011;10658;50.920;12.238;2023-02-15T10:42:01;2.45;;;2.10;;
21000;SDS011;10658;50.920;12.238;2023-02-15T10:50:56;4.18;;;2.92;;
21000;SDS011;10658;50.920;12.238;2023-02-15T10:55:08;4.32;;;2.38;;
21000;SDS011;10658;50.920;12.238;2023-02-15T10:59:46;5.60;;;3.30;;
21000;SDS011;10658;50.920;12.238;2023-02-15T11:08:17;6.45;;;4.63;;
21000;SDS011;10658;50.920;12.238;2023-02-15T11:12:21;7.63;;;4.68;;
21000;SDS011;10658;50.920;12.238;2023-02-15T11:16:28;7.65;;;4.68;;
21000;SDS011;10658;50.920;12.238;2023-02-15T11:20:35;5.25;;;3.20;;
21000;SDS011;10658;50.920;12.238;2023-02-15T11:24:45;4.75;;;2.95;;
21000;SDS011;10658;50.920;12.238;2023-02-15T11:28:56;7.50;;;4.57;;
21000;SDS011;10658;50.920;12.238;2023-02-15T11:33:02;4.47;;;3.17;;
21000;SDS011;10658;50.920;12.238;2023-02-15T11:37:35;5.07;;;4.00;;
21000;SDS011;10658;50.920;12.238;2023-02-15T11:41:44;6.25;;;4.45;;
21000;SDS011;10658;50.920;12.238;2023-02-15T11:45:53;6.25;;;4.10;;
21000;SDS011;10658;50.920;12.238;2023-02-15T11:49:54;7.72;;;4.05;;
21000;SDS011;10658;50.920;12.238;2023-02-15T11:53:58;4.75;;;3.35;;
21000;SDS011;10658;50.920;12.238;2023-02-15T11:58:23;5.32;;;3.60;;
21000;SDS011;10658;50.920;12.238;2023-02-15T12:02:35;2.88;;;2.03;;
21000;SDS011;10658;50.920;12.238;2023-02-15T12:07:24;2.90;;;1.52;;
21000;SDS011;10658;50.920;12.238;2023-02-15T12:11:34;4.65;;;2.22;;
21000;SDS011;10658;50.920;12.238;2023-02-15T12:15:38;3.75;;;2.72;;
21000;SDS011;10658;50.920;12.238;2023-02-15T12:19:44;4.32;;;2.53;;
21000;SDS011;10658;50.920;12.238;2023-02-15T12:23:51;2.25;;;1.80;;
21000;SDS011;10658;50.920;12.238;2023-02-15T12:27:53;2.90;;;2.00;;
21000;SDS011;10658;50.920;12.238;2023-02-15T12:31:55;2.03;;;1.83;;
21000;SDS011;10658;50.920;12.238;2023-02-15T12:36:10;2.10;;;1.23;;
21000;SDS011;10658;50.920;12.238;2023-02-15T12:40:19;2.05;;;1.65;;
21000;SDS011;10658;50.920;12.238;2023-02-15T12:44:29;3.00;;;2.28;;
21000;SDS011;10658;50.920;12.238;2023-02-15T12:48:32;2.58;;;1.83;;
21000;SDS011;10658;50.920;12.238;2023-02-15T12:52:33;3.15;;;1.90;;
21000;SDS011;10658;50.920;12.238;2023-02-15T12:56:34;3.70;;;1.80;;
21000;SDS011;10658;50.920;12.238;2023-02-15T13:00:35;2.80;;;1.70;;
21000;SDS011;10658;50.920;12.238;2023-02-15T13:04:37;4.53;;;2.65;;
21000;SDS011;10658;50.920;12.238;2023-02-15T13:08:50;2.78;;;2.20;;
21000;SDS011;10658;50.920;12.238;2023-02-15T13:12:52;4.50;;;2.65;;
21000;SDS011;10658;50.920;12.238;2023-02-15T13:16:56;4.25;;;2.05;;
21000;SDS011;10658;50.920;12.238;2023-02-15T13:21:04;1.85;;;1.50;;
21000;SDS011;10658;50.920;12.238;2023-02-15T13:25:26;2.85;;;2.03;;
21000;SDS011;10658;50.920;12.238;2023-02-15T13:29:31;2.70;;;2.00;;
21000;SDS011;10658;50.920;12.238;2023-02-15T13:33:37;2.28;;;1.90;;
21000;SDS011;10658;50.920;12.238;2023-02-15T13:55:21;7.85;;;4.32;;
21000;SDS011;10658;50.920;12.238;2023-02-15T14:03:49;4.55;;;2.78;;
21000;SDS011;10658;50.920;12.238;2023-02-15T14:12:29;7.80;;;4.72;;
21000;SDS011;10658;50.920;12.238;2023-02-15T14:17:13;6.53;;;4.65;;
21000;SDS011;10658;50.920;12.238;2023-02-15T14:26:00;3.45;;;2.72;;
21000;SDS011;10658;50.920;12.238;2023-02-15T14:30:13;2.53;;;1.73;;
21000;SDS011;10658;50.920;12.238;2023-02-15T14:34:25;3.35;;;2.20;;
21000;SDS011;10658;50.920;12.238;2023-02-15T14:47:32;2.60;;;2.13;;
21000;SDS011;10658;50.920;12.238;2023-02-15T14:55:43;3.30;;;2.25;;
21000;SDS011;10658;50.920;12.238;2023-02-15T14:59:58;3.63;;;2.75;;
21000;SDS011;10658;50.920;12.238;2023-02-15T15:04:09;4.22;;;3.65;;
21000;SDS011;10658;50.920;12.238;2023-02-15T15:08:29;5.60;;;4.07;;
21000;SDS011;10658;50.920;12.238;2023-02-15T15:12:36;10.45;;;6.40;;
21000;SDS011;10658;50.920;12.238;2023-02-15T15:20:47;5.00;;;3.53;;
21000;SDS011;10658;50.920;12.238;2023-02-15T15:24:53;7.35;;;5.28;;
21000;SDS011;10658;50.920;12.238;2023-02-15T15:28:58;4.85;;;3.58;;
21000;SDS011;10658;50.920;12.238;2023-02-15T15:37:45;21.02;;;11.27;;
21000;SDS011;10658;50.920;12.238;2023-02-15T15:50:33;7.57;;;5.30;;
21000;SDS011;10658;50.920;12.238;2023-02-15T15:54:34;11.20;;;7.10;;
21000;SDS011;10658;50.920;12.238;2023-02-15T15:58:42;12.43;;;7.95;;
21000;SDS011;10658;50.920;12.238;2023-02-15T16:02:51;7.70;;;4.75;;
21000;SDS011;10658;50.920;12.238;2023-02-15T16:06:53;8.73;;;4.20;;
21000;SDS011;10658;50.920;12.238;2023-02-15T16:10:57;10.70;;;5.40;;
21000;SDS011;10658;50.920;12.238;2023-02-15T16:19:40;13.50;;;9.75;;
21000;SDS011;10658;50.920;12.238;2023-02-15T16:23:50;36.67;;;28.67;;
21000;SDS011;10658;50.920;12.238;2023-02-15T16:28:10;46.17;;;37.65;;
21000;SDS011;10658;50.920;12.238;2023-02-15T16:32:22;25.38;;;16.17;;
21000;SDS011;10658;50.920;12.238;2023-02-15T16:36:28;15.90;;;9.98;;
21000;SDS011;10658;50.920;12.238;2023-02-15T16:40:46;15.85;;;12.48;;
21000;SDS011;10658;50.920;12.238;2023-02-15T16:45:01;11.57;;;8.90;;
21000;SDS011;10658;50.920;12.238;2023-02-15T16:49:06;8.65;;;6.95;;
21000;SDS011;10658;50.920;12.238;2023-02-15T16:53:24;6.43;;;5.78;;
21000;SDS011;10658;50.920;12.238;2023-02-15T16:57:33;5.95;;;4.85;;
21000;SDS011;10658;50.920;12.238;2023-02-15T17:01:59;6.47;;;4.47;;
21000;SDS011;10658;50.920;12.238;2023-02-15T17:06:04;5.28;;;4.20;;
21000;SDS011;10658;50.920;12.238;2023-02-15T17:11:01;4.57;;;3.55;;
21000;SDS011;10658;50.920;12.238;2023-02-15T17:15:04;6.65;;;4.10;;
21000;SDS011;10658;50.920;12.238;2023-02-15T17:19:28;6.78;;;4.60;;
21000;SDS011;10658;50.920;12.238;2023-02-15T17:23:40;6.35;;;4.20;;
21000;SDS011;10658;50.920;12.238;2023-02-15T17:27:43;8.00;;;5.63;;
21000;SDS011;10658;50.920;12.238;2023-02-15T17:31:46;8.02;;;4.63;;
21000;SDS011;10658;50.920;12.238;2023-02-15T17:36:05;9.13;;;6.53;;
21000;SDS011;10658;50.920;12.238;2023-02-15T17:40:26;14.07;;;7.45;;
21000;SDS011;10658;50.920;12.238;2023-02-15T17:44:32;19.27;;;10.20;;
21000;SDS011;10658;50.920;12.238;2023-02-15T17:48:34;18.75;;;9.52;;
21000;SDS011;10658;50.920;12.238;2023-02-15T17:52:37;15.80;;;9.68;;
21000;SDS011;10658;50.920;12.238;2023-02-15T17:56:40;15.80;;;8.50;;
21000;SDS011;10658;50.920;12.238;2023-02-15T18:00:43;9.05;;;5.88;;
21000;SDS011;10658;50.920;12.238;2023-02-15T18:05:04;11.00;;;5.68;;
21000;SDS011;10658;50.920;12.238;2023-02-15T18:09:28;8.55;;;5.47;;
21000;SDS011;10658;50.920;12.238;2023-02-15T18:13:49;9.45;;;5.03;;
21000;SDS011;10658;50.920;12.238;2023-02-15T18:17:50;8.52;;;5.68;;
21000;SDS011;10658;50.920;12.238;2023-02-15T18:21:51;7.95;;;4.95;;
21000;SDS011;10658;50.920;12.238;2023-02-15T18:25:55;8.30;;;5.43;;
21000;SDS011;10658;50.920;12.238;2023-02-15T18:29:56;10.10;;;5.00;;
21000;SDS011;10658;50.920;12.238;2023-02-15T18:33:58;6.88;;;4.80;;
21000;SDS011;10658;50.920;12.238;2023-02-15T18:38:01;11.90;;;6.60;;
21000;SDS011;10658;50.920;12.238;2023-02-15T18:42:03;10.38;;;6.80;;
21000;SDS011;10658;50.920;12.238;2023-02-15T18:46:05;11.15;;;7.88;;
21000;SDS011;10658;50.920;12.238;2023-02-15T18:50:06;9.70;;;6.65;;
21000;SDS011;10658;50.920;12.238;2023-02-15T18:54:16;11.07;;;7.38;;
21000;SDS011;10658;50.920;12.238;2023-02-15T18:58:24;17.05;;;7.15;;
21000;SDS011;10658;50.920;12.238;2023-02-15T19:02:29;16.10;;;8.35;;
21000;SDS011;10658;50.920;12.238;2023-02-15T19:06:31;16.90;;;8.88;;
21000;SDS011;10658;50.920;12.238;2023-02-15T19:10:32;13.25;;;7.95;;
21000;SDS011;10658;50.920;12.238;2023-02-15T19:14:33;15.70;;;8.25;;
21000;SDS011;10658;50.920;12.238;2023-02-15T19:18:34;11.38;;;8.05;;
21000;SDS011;10658;50.920;12.238;2023-02-15T19:22:35;29.05;;;14.65;;
21000;SDS011;10658;50.920;12.238;2023-02-15T19:26:37;25.70;;;14.90;;
21000;SDS011;10658;50.920;12.238;2023-02-15T19:30:41;16.25;;;8.93;;
21000;SDS011;10658;50.920;12.238;2023-02-15T19:35:03;14.15;;;8.05;;
21000;SDS011;10658;50.920;12.238;2023-02-15T19:39:05;14.73;;;7.32;;
21000;SDS011;10658;50.920;12.238;2023-02-15T19:43:15;19.80;;;8.65;;
21000;SDS011;10658;50.920;12.238;2023-02-15T19:47:17;15.13;;;8.75;;
21000;SDS011;10658;50.920;12.238;2023-02-15T19:51:20;14.10;;;8.48;;
21000;SDS011;10658;50.920;12.238;2023-02-15T19:55:26;14.02;;;7.55;;
21000;SDS011;10658;50.920;12.238;2023-02-15T19:59:32;17.23;;;9.13;;
21000;SDS011;10658;50.920;12.238;2023-02-15T20:03:34;17.55;;;9.98;;
21000;SDS011;10658;50.920;12.238;2023-02-15T20:07:36;18.05;;;8.82;;
21000;SDS011;10658;50.920;12.238;2023-02-15T20:15:41;35.60;;;21.63;;
21000;SDS011;10658;50.920;12.238;2023-02-15T20:19:44;18.67;;;11.75;;
21000;SDS011;10658;50.920;12.238;2023-02-15T20:23:45;14.98;;;9.30;;
21000;SDS011;10658;50.920;12.238;2023-02-15T20:27:46;14.50;;;8.98;;
21000;SDS011;10658;50.920;12.238;2023-02-15T20:31:47;15.27;;;8.77;;
21000;SDS011;10658;50.920;12.238;2023-02-15T20:35:49;19.30;;;9.65;;
21000;SDS011;10658;50.920;12.238;2023-02-15T20:39:50;17.52;;;9.48;;
21000;SDS011;10658;50.920;12.238;2023-02-15T20:43:51;16.35;;;8.88;;
21000;SDS011;10658;50.920;12.238;2023-02-15T20:47:53;15.30;;;9.38;;
21000;SDS011;10658;50.920;12.238;2023-02-15T20:51:54;17.20;;;9.00;;
21000;SDS011;10658;50.920;12.238;2023-02-15T20:55:58;14.52;;;9.77;;
21000;SDS011;10658;50.920;12.238;2023-02-15T20:59:59;16.63;;;9.10;;
21000;SDS011;10658;50.920;12.238;2023-02-15T21:04:00;14.73;;;8.85;;
21000;SDS011;10658;50.920;12.238;2023-02-15T21:08:05;17.95;;;9.45;;
21000;SDS011;10658;50.920;12.238;2023-02-15T21:12:13;19.88;;;11.73;;
21000;SDS011;10658;50.920;12.238;2023-02-15T21:16:16;20.23;;;11.35;;
21000;SDS011;10658;50.920;12.238;2023-02-15T21:20:18;16.25;;;9.57;;
21000;SDS011;10658;50.920;12.238;2023-02-15T21:28:25;16.40;;;9.13;;
21000;SDS011;10658;50.920;12.238;2023-02-15T21:32:28;17.00;;;10.60;;
21000;SDS011;10658;50.920;12.238;2023-02-15T21:36:29;13.70;;;8.55;;
21000;SDS011;10658;50.920;12.238;2023-02-15T21:40:31;13.10;;;8.35;;
21000;SDS011;10658;50.920;12.238;2023-02-15T21:44:32;17.10;;;9.77;;
21000;SDS011;10658;50.920;12.238;2023-02-15T21:48:53;14.73;;;9.45;;
21000;SDS011;10658;50.920;12.238;2023-02-15T21:52:54;15.93;;;8.10;;
21000;SDS011;10658;50.920;12.238;2023-02-15T21:56:56;13.82;;;8.63;;
21000;SDS011;10658;50.920;12.238;2023-02-15T22:00:58;16.48;;;8.73;;
21000;SDS011;10658;50.920;12.238;2023-02-15T22:05:00;14.27;;;8.52;;
21000;SDS011;10658;50.920;12.238;2023-02-15T22:09:01;19.08;;;9.52;;
21000;SDS011;10658;50.920;12.238;2023-02-15T22:13:02;15.63;;;8.68;;
21000;SDS011;10658;50.920;12.238;2023-02-15T22:17:16;14.98;;;9.40;;
21000;SDS011;10658;50.920;12.238;2023-02-15T22:21:20;18.77;;;9.90;;
21000;SDS011;10658;50.920;12.238;2023-02-15T22:25:22;14.80;;;9.57;;
21000;SDS011;10658;50.920;12.238;2023-02-15T22:29:25;21.00;;;12.38;;
21000;SDS011;10658;50.920;12.238;2023-02-15T22:33:27;22.63;;;12.35;;
21000;SDS011;10658;50.920;12.238;2023-02-15T22:37:30;19.77;;;10.15;;
21000;SDS011;10658;50.920;12.238;2023-02-15T22:41:31;14.55;;;8.30;;
21000;SDS011;10658;50.920;12.238;2023-02-15T22:45:32;16.55;;;9.02;;
21000;SDS011;10658;50.920;12.238;2023-02-15T22:49:35;16.45;;;8.52;;
21000;SDS011;10658;50.920;12.238;2023-02-15T22:53:36;18.40;;;9.30;;
21000;SDS011;10658;50.920;12.238;2023-02-15T22:57:40;14.65;;;8.63;;
21000;SDS011;10658;50.920;12.238;2023-02-15T23:01:41;18.02;;;9.88;;
21000;SDS011;10658;50.920;12.238;2023-02-15T23:05:44;22.75;;;11.20;;
21000;SDS011;10658;50.920;12.238;2023-02-15T23:09:46;16.95;;;9.88;;
21000;SDS011;10658;50.920;12.238;2023-02-15T23:13:47;20.45;;;9.95;;
21000;SDS011;10658;50.920;12.238;2023-02-15T23:17:49;23.05;;;11.30;;
21000;SDS011;10658;50.920;12.238;2023-02-15T23:21:52;25.02;;;11.15;;
21000;SDS011;10658;50.920;12.238;2023-02-15T23:25:53;24.85;;;12.20;;
21000;SDS011;10658;50.920;12.238;2023-02-15T23:29:55;23.73;;;12.43;;
21000;SDS011;10658;50.920;12.238;2023-02-15T23:33:57;18.52;;;9.95;;
21000;SDS011;10658;50.920;12.238;2023-02-15T23:38:05;13.63;;;8.13;;
21000;SDS011;10658;50.920;12.238;2023-02-15T23:42:38;15.20;;;9.70;;
21000;SDS011;10658;50.920;12.238;2023-02-15T23:46:40;17.35;;;9.05;;
21000;SDS011;10658;50.920;12.238;2023-02-15T23:50:44;16.15;;;8.75;;
21000;SDS011;10658;50.920;12.238;2023-02-15T23:54:46;18.25;;;9.70;;
21000;SDS011;10658;50.920;12.238;2023-02-15T23:58:47;18.10;;;11.18;;
